Time;durP1;ratioP1;P1;durP2;ratioP2;P2;SDS_P1;SDS_P2;PMS_P1;PMS_P2;Temp;Humidity;BMP_temperature;BMP_pressure;BME280_temperature;BME280_humidity;BME280_pressure;Samples;Min_cycle;Max_cycle;Signal;HPM_P1;HPM_P2
2022/04/07 00:03:28;;;;;;;0.52;0.43;;;;;;;;;;20306817;29;20043;-81
2022/04/07 00:13:30;;;;;;;0.40;0.40;;;;;;;;;;20284005;29;20059;-81
2022/04/07 00:23:32;;;;;;;1.50;0.63;;;;;;;;;;20294101;29;20427;-81
2022/04/07 00:33:34;;;;;;;0.75;0.50;;;;;;;;;;20307386;29;20065;-81
2022/04/07 00:43:36;;;;;;;0.45;0.20;;;;;;;;;;20295127;29;20052;-82
2022/04/07 00:53:38;;;;;;;0.70;0.40;;;;;;;;;;20304285;29;20056;-82
2022/04/07 01:03:40;;;;;;;1.05;0.35;;;;;;;;;;20306013;29;20053;-82
2022/04/07 01:13:45;;;;;;;0.52;0.40;;;;;;;;;;20283747;29;20052;-82
2022/04/07 01:23:47;;;;;;;;;;;;;;;;;;20289295;29;20052;-81
2022/04/07 01:33:49;;;;;;;1.17;0.40;;;;;;;;;;20281493;29;20362;-81
2022/04/07 01:43:51;;;;;;;0.30;0.30;;;;;;;;;;20277113;29;20056;-82
2022/04/07 01:53:53;;;;;;;0.80;0.40;;;;;;;;;;20299144;29;20050;-81
2022/04/07 02:03:54;;;;;;;0.30;0.28;;;;;;;;;;20283592;29;20064;-82
2022/04/07 02:13:56;;;;;;;0.30;0.30;;;;;;;;;;20297733;29;20514;-81
2022/04/07 02:23:59;;;;;;;0.30;0.30;;;;;;;;;;20305725;29;20060;-82
2022/04/07 02:34:01;;;;;;;0.43;0.40;;;;;;;;;;20301463;29;20143;-82
2022/04/07 02:44:02;;;;;;;1.10;0.30;;;;;;;;;;20282726;29;20559;-82
2022/04/07 02:54:04;;;;;;;0.73;0.30;;;;;;;;;;20331125;29;20479;-81
2022/04/07 03:04:06;;;;;;;0.55;0.40;;;;;;;;;;20315962;29;20483;-81
2022/04/07 03:14:08;;;;;;;0.50;0.30;;;;;;;;;;20309890;29;20070;-81
2022/04/07 03:24:10;;;;;;;0.52;0.30;;;;;;;;;;20270080;29;20056;-81
2022/04/07 03:34:33;;;;;;;1.65;0.60;;;;;;;;;;20291269;29;20541;-82
2022/04/07 03:44:36;;;;;;;0.75;0.30;;;;;;;;;;20299774;29;20448;-82
2022/04/07 03:54:37;;;;;;;0.98;0.40;;;;;;;;;;20293102;29;20058;-82
2022/04/07 04:04:39;;;;;;;0.80;0.50;;;;;;;;;;20289911;29;20055;-82
2022/04/07 04:14:40;;;;;;;1.33;0.50;;;;;;;;;;20307391;29;20056;-82
2022/04/07 04:24:42;;;;;;;0.68;0.20;;;;;;;;;;20290144;29;20063;-81
2022/04/07 04:34:44;;;;;;;0.65;0.40;;;;;;;;;;20296380;29;20041;-81
2022/04/07 04:44:46;;;;;;;1.10;0.47;;;;;;;;;;20303572;29;20056;-81
2022/04/07 04:54:48;;;;;;;1.17;0.40;;;;;;;;;;20283290;29;20084;-80
2022/04/07 05:04:50;;;;;;;1.08;0.50;;;;;;;;;;20297989;29;20399;-83
2022/04/07 05:14:51;;;;;;;0.52;0.30;;;;;;;;;;20281812;29;20041;-83
2022/04/07 05:24:53;;;;;;;1.02;0.60;;;;;;;;;;20330166;29;20087;-82
2022/04/07 05:34:55;;;;;;;0.77;0.75;;;;;;;;;;20308122;29;20044;-83
2022/04/07 05:44:56;;;;;;;0.98;0.50;;;;;;;;;;20291979;29;20083;-81
2022/04/07 05:54:58;;;;;;;1.25;0.60;;;;;;;;;;20287346;29;20071;-80
2022/04/07 06:05:00;;;;;;;0.90;0.50;;;;;;;;;;20270035;29;20049;-81
2022/04/07 06:15:02;;;;;;;0.77;0.43;;;;;;;;;;20286085;29;20060;-81
2022/04/07 06:25:04;;;;;;;1.42;0.60;;;;;;;;;;20277417;29;20510;-82
2022/04/07 06:35:07;;;;;;;0.95;0.50;;;;;;;;;;20299412;29;20067;-82
2022/04/07 06:45:09;;;;;;;1.10;0.57;;;;;;;;;;20275451;29;20072;-81
2022/04/07 06:55:13;;;;;;;1.38;0.50;;;;;;;;;;20312096;29;20059;-80
2022/04/07 07:05:14;;;;;;;1.05;0.40;;;;;;;;;;20354792;29;20047;-80
2022/04/07 07:15:16;;;;;;;1.10;0.35;;;;;;;;;;20337185;29;20055;-80
2022/04/07 07:25:18;;;;;;;0.75;0.32;;;;;;;;;;20353245;29;20059;-80
2022/04/07 07:35:20;;;;;;;0.47;0.22;;;;;;;;;;20321570;29;20059;-80
2022/04/07 07:45:26;;;;;;;0.45;0.30;;;;;;;;;;20335175;29;20058;-79
2022/04/07 07:55:49;;;;;;;1.07;0.40;;;;;;;;;;20334192;29;20048;-80
2022/04/07 08:05:50;;;;;;;0.98;0.45;;;;;;;;;;20349647;29;20147;-79
2022/04/07 08:15:52;;;;;;;0.60;0.47;;;;;;;;;;20349468;29;20149;-79
2022/04/07 08:25:54;;;;;;;0.75;0.30;;;;;;;;;;20349089;29;20052;-79
2022/04/07 08:35:56;;;;;;;0.65;0.20;;;;;;;;;;20348239;29;20084;-79
2022/04/07 08:45:57;;;;;;;0.82;0.30;;;;;;;;;;20330679;29;20066;-79
2022/04/07 08:56:00;;;;;;;0.85;0.30;;;;;;;;;;20346782;29;20052;-78
2022/04/07 09:06:03;;;;;;;0.35;0.22;;;;;;;;;;20346367;29;20052;-79
2022/04/07 09:16:11;;;;;;;0.35;0.30;;;;;;;;;;20327533;28;20131;-79
2022/04/07 09:26:14;;;;;;;0.75;0.20;;;;;;;;;;20328093;29;20055;-79
2022/04/07 09:36:21;;;;;;;0.38;0.20;;;;;;;;;;20327052;29;20067;-79
2022/04/07 09:46:23;;;;;;;0.52;0.30;;;;;;;;;;20328595;29;20066;-79
2022/04/07 09:56:26;;;;;;;0.93;0.30;;;;;;;;;;20326271;29;20060;-80
2022/04/07 10:06:28;;;;;;;0.73;0.20;;;;;;;;;;20326069;29;20140;-79
2022/04/07 10:16:30;;;;;;;1.20;0.50;;;;;;;;;;20341880;28;20072;-79
2022/04/07 10:26:33;;;;;;;0.90;0.30;;;;;;;;;;20331994;29;20143;-82
2022/04/07 10:36:36;;;;;;;0.90;0.30;;;;;;;;;;20357042;29;20384;-81
2022/04/07 10:46:38;;;;;;;0.50;0.30;;;;;;;;;;20339228;29;20052;-81
2022/04/07 10:56:45;;;;;;;0.77;0.40;;;;;;;;;;20355674;29;20052;-81
2022/04/07 11:07:24;;;;;;;0.98;0.38;;;;;;;;;;20323060;29;20048;-81
2022/04/07 11:17:30;;;;;;;1.52;0.47;;;;;;;;;;20337470;28;20056;-82
2022/04/07 11:27:33;;;;;;;1.35;0.52;;;;;;;;;;20321367;29;20072;-82
2022/04/07 11:37:38;;;;;;;1.35;0.50;;;;;;;;;;20351602;29;20066;-82
2022/04/07 11:47:40;;;;;;;3.30;1.10;;;;;;;;;;20351787;29;20060;-82
2022/04/07 11:57:42;;;;;;;2.10;0.60;;;;;;;;;;20292929;29;20072;-82
2022/04/07 12:07:43;;;;;;;2.22;0.60;;;;;;;;;;20272600;29;20151;-81
2022/04/07 12:18:01;;;;;;;2.03;0.80;;;;;;;;;;20285930;29;20053;-81
2022/04/07 12:28:07;;;;;;;2.00;0.70;;;;;;;;;;20335025;29;20522;-82
2022/04/07 12:38:12;;;;;;;2.53;0.63;;;;;;;;;;20331560;29;20052;-82
2022/04/07 12:48:15;;;;;;;3.05;0.80;;;;;;;;;;20330553;29;20052;-80
2022/04/07 12:58:32;;;;;;;2.30;0.95;;;;;;;;;;20272968;29;20076;-81
2022/04/07 13:08:34;;;;;;;4.10;0.80;;;;;;;;;;20251088;29;20155;-80
2022/04/07 13:18:35;;;;;;;1.55;1.15;;;;;;;;;;20266866;29;20067;-80
2022/04/07 13:28:37;;;;;;;2.03;0.40;;;;;;;;;;20249930;29;20056;-80
2022/04/07 13:38:39;;;;;;;2.63;0.70;;;;;;;;;;20265766;29;20479;-80
2022/04/07 13:48:41;;;;;;;1.58;0.60;;;;;;;;;;20217672;29;20059;-80
2022/04/07 13:58:42;;;;;;;2.20;0.70;;;;;;;;;;20264353;29;20041;-81
2022/04/07 14:08:46;;;;;;;1.45;0.82;;;;;;;;;;20269411;29;20058;-80
2022/04/07 14:18:47;;;;;;;2.45;0.80;;;;;;;;;;20324975;29;20067;-80
2022/04/07 14:28:49;;;;;;;2.97;0.80;;;;;;;;;;20341687;29;20044;-83
2022/04/07 14:38:51;;;;;;;1.80;0.60;;;;;;;;;;20307562;29;20091;-81
2022/04/07 14:48:53;;;;;;;2.45;0.65;;;;;;;;;;20341202;29;20052;-81
2022/04/07 14:58:55;;;;;;;2.30;0.73;;;;;;;;;;20308486;29;20052;-81
2022/04/07 15:08:57;;;;;;;1.48;0.60;;;;;;;;;;20342629;29;20052;-81
2022/04/07 15:18:58;;;;;;;2.13;0.52;;;;;;;;;;20353942;29;20135;-81
2022/04/07 15:29:00;;;;;;;1.88;0.68;;;;;;;;;;20353145;29;20042;-81
2022/04/07 15:39:02;;;;;;;1.08;0.40;;;;;;;;;;20336302;29;20062;-81
2022/04/07 15:49:05;;;;;;;2.17;0.57;;;;;;;;;;20351881;29;20440;-80
2022/04/07 15:59:06;;;;;;;1.75;0.60;;;;;;;;;;20334422;29;20052;-81
2022/04/07 16:09:08;;;;;;;0.98;0.40;;;;;;;;;;20333727;29;20044;-81
2022/04/07 16:19:10;;;;;;;1.55;0.60;;;;;;;;;;20332463;29;20062;-81
2022/04/07 16:29:11;;;;;;;1.05;0.47;;;;;;;;;;20332095;29;20052;-81
2022/04/07 16:39:14;;;;;;;0.88;0.40;;;;;;;;;;20349649;29;20142;-81
2022/04/07 16:49:17;;;;;;;1.25;0.50;;;;;;;;;;20330408;29;20419;-81
2022/04/07 16:59:18;;;;;;;1.73;0.60;;;;;;;;;;20329711;29;20056;-81
2022/04/07 17:09:20;;;;;;;1.58;0.50;;;;;;;;;;20329269;29;20072;-81
2022/04/07 17:19:22;;;;;;;1.65;0.60;;;;;;;;;;20328807;28;20068;-81
2022/04/07 17:29:24;;;;;;;1.70;0.40;;;;;;;;;;20327868;29;20048;-81
2022/04/07 17:39:26;;;;;;;1.40;0.40;;;;;;;;;;20326615;29;20058;-81
2022/04/07 17:49:28;;;;;;;0.60;0.40;;;;;;;;;;20326935;29;20494;-81
2022/04/07 17:59:30;;;;;;;1.38;0.50;;;;;;;;;;20326127;29;20055;-81
2022/04/07 18:09:31;;;;;;;0.85;0.40;;;;;;;;;;20342669;29;20491;-81
2022/04/07 18:19:33;;;;;;;0.57;0.30;;;;;;;;;;20342847;29;20082;-81
2022/04/07 18:29:35;;;;;;;0.40;0.28;;;;;;;;;;20341863;29;20047;-80
2022/04/07 18:39:38;;;;;;;1.23;0.38;;;;;;;;;;20341638;29;20084;-80
2022/04/07 18:49:39;;;;;;;1.60;0.47;;;;;;;;;;20352756;29;20044;-81
2022/04/07 18:59:41;;;;;;;1.08;0.40;;;;;;;;;;20355565;29;20180;-80
2022/04/07 19:09:43;;;;;;;1.17;0.40;;;;;;;;;;20354992;29;20052;-81
2022/04/07 19:19:45;;;;;;;0.90;0.50;;;;;;;;;;20337722;29;20163;-81
2022/04/07 19:29:46;;;;;;;0.73;0.40;;;;;;;;;;20353563;29;20083;-80
2022/04/07 19:39:49;;;;;;;1.88;0.40;;;;;;;;;;20352823;29;20056;-81
2022/04/07 19:49:51;;;;;;;1.80;0.40;;;;;;;;;;20352195;29;20414;-80
2022/04/07 19:59:53;;;;;;;1.05;0.50;;;;;;;;;;20318496;29;20079;-81
2022/04/07 20:09:57;;;;;;;0.90;0.40;;;;;;;;;;20318489;29;20143;-80
2022/04/07 20:19:59;;;;;;;1.05;0.40;;;;;;;;;;20349509;28;20067;-81
2022/04/07 20:30:01;;;;;;;1.13;0.45;;;;;;;;;;20332240;29;20048;-81
2022/04/07 20:40:03;;;;;;;0.90;0.40;;;;;;;;;;20316165;29;20091;-81
2022/04/07 20:50:06;;;;;;;0.85;0.57;;;;;;;;;;20347130;29;20047;-80
2022/04/07 21:00:09;;;;;;;0.75;0.40;;;;;;;;;;20314466;29;20052;-81
2022/04/07 21:10:11;;;;;;;1.15;0.38;;;;;;;;;;20329386;29;20062;-81
2022/04/07 21:20:12;;;;;;;0.80;0.40;;;;;;;;;;20345257;28;20084;-81
2022/04/07 21:30:14;;;;;;;1.55;0.50;;;;;;;;;;20312551;29;20048;-81
2022/04/07 21:40:16;;;;;;;0.82;0.30;;;;;;;;;;20311935;29;20058;-81
2022/04/07 21:50:18;;;;;;;1.58;0.55;;;;;;;;;;20343653;29;20411;-80
2022/04/07 22:00:20;;;;;;;1.80;0.77;;;;;;;;;;20327037;29;20055;-82
2022/04/07 22:10:22;;;;;;;2.47;0.40;;;;;;;;;;20342685;29;20387;-81
2022/04/07 22:20:24;;;;;;;0.90;0.43;;;;;;;;;;20316842;29;20048;-81
2022/04/07 22:30:26;;;;;;;1.98;0.55;;;;;;;;;;20341142;29;20052;-81
2022/04/07 22:40:28;;;;;;;1.27;0.40;;;;;;;;;;20357501;29;20048;-82
2022/04/07 22:50:29;;;;;;;1.48;0.60;;;;;;;;;;20324868;29;20058;-81
2022/04/07 23:00:31;;;;;;;0.88;0.75;;;;;;;;;;20339568;29;20048;-82
2022/04/07 23:10:33;;;;;;;1.75;0.57;;;;;;;;;;20322887;29;20044;-82
2022/04/07 23:20:35;;;;;;;1.35;0.47;;;;;;;;;;20337538;29;20067;-81
2022/04/07 23:30:36;;;;;;;0.80;0.30;;;;;;;;;;20320219;29;20060;-81
2022/04/07 23:40:40;;;;;;;1.27;0.40;;;;;;;;;;20322107;29;20056;-82
2022/04/07 23:50:42;;;;;;;1.15;0.50;;;;;;;;;;20352135;29;20048;-82
